Kansas City, MO

9:47 AM CDT on October 01, 2014 (GMT -0500)
Weatherby Lake Westside | Change Station
CLOSE
Current Station
Personal Weather Station
Location: Weatherby Lake, MO
Elevation: 909 ft
Nearby Weather Stations

Elev 909 ft 39.23 °N, 94.70 °W | Updated 4 seconds ago

Rain
Rain
66.6 °F
Feels Like 66.6 °F
N
1.3
Wind Variable Wind from SSE
Gusts 2.7 mph

Today
High -- | Low -- °F
--% Chance of Precip.
Yesterday
High -- | Low -- °F
Precip. -- in
7:14 AM 7:01 PM
Waxing Crescent, 48% visible
Pressure 29.90 in
Visibility 10.0 miles
Clouds Few 15000 ft
Mostly Cloudy 25000 ft
Dew Point 62 °F
Humidity 86%
Rainfall 0.89 in
Snow Depth Not available.
UV 2 out of 12
Pollen .50 out of 12
Ozone Good
PM2.5 Moderate
Flu Activity Not available.
METAR KMCI 301453Z 21010KT 10SM FEW150 BKN250 23/16 A2993 RMK AO2 SLP124 T02280161 55001

More Conditions Fewer Conditions

Pressure 29.90 in
Visibility 10.0 miles
Clouds Few 15000 ft
Mostly Cloudy 25000 ft
Dew Point 62 °F
Humidity 86%
Rainfall 0.89 in
Snow Depth Not available.
UV 2 out of 12
Pollen .50 out of 12
Ozone Good
PM2.5 Moderate
Flu Activity Not available.
METAR KMCI 301453Z 21010KT 10SM FEW150 BKN250 23/16 A2993 RMK AO2 SLP124 T02280161 55001

More Conditions Fewer Conditions

10-Day Weather Forecast

Almanac

Astronomy

Oct. 01, 2014 Rise Set
Actual Time 7:14 AM CDT 7:01 PM CDT
Civil Twilight 6:48 AM CDT 7:28 PM CDT
Nautical Twilight 6:17 AM CDT 7:59 PM CDT
Astronomical Twilight 5:45 AM CDT 8:30 PM CDT
Moon 2:15 PM CDT No Moon Set
Length of Visible Light 12h 39m
Length of Day
11h 46m
Tomorrow will be 2m 32s shorter.
Waxing Crescent, 48% of the Moon is Illuminated
Today
Waxing Crescent
Oct 1
First Quarter
Oct 8
Full
Oct 15
Last Quarter
Oct 23
New

Today's Extremes

State Highs State Lows

Community

WunderPhotos

Upload Photos

1,757,960 photos uploaded!

Nearby

Air Quality

  Air Quality AQ Index Pollutant
Yesterday Moderate
PM2.5
Yesterday Good
OZONE
Current Moderate
PM2.5
Current Good
OZONE
Wednesday Good
OZONE

Snow Depth

Station Depth Elevation
No new snow has been reported.

Earthquake Activity

City Distance Mag. Time & Date
Parsons, Kansas 137 miles 3.0 7:33 PM CDT
2014-09-30
Minimum magnitude displayed is 2.5.

Coastal Water Temperatures

Place Temperature
No Stations Reporting

Nearby Weather Stations